sensor_id;sensor_type;location;lat;lon;timestamp;P1;durP1;ratioP1;P2;durP2;ratioP2
32216;SDS011;18709;51.140;4.088;2022-12-29T00:01:33;1.83;;;1.30;;
32216;SDS011;18709;51.140;4.088;2022-12-29T00:04:00;2.05;;;1.45;;
32216;SDS011;18709;51.140;4.088;2022-12-29T00:06:26;1.58;;;1.25;;
32216;SDS011;18709;51.140;4.088;2022-12-29T00:08:53;2.25;;;1.30;;
32216;SDS011;18709;51.140;4.088;2022-12-29T00:11:19;3.35;;;1.23;;
32216;SDS011;18709;51.140;4.088;2022-12-29T00:13:47;5.00;;;1.60;;
32216;SDS011;18709;51.140;4.088;2022-12-29T00:16:32;3.40;;;1.45;;
32216;SDS011;18709;51.140;4.088;2022-12-29T00:18:59;3.20;;;1.15;;
32216;SDS011;18709;51.140;4.088;2022-12-29T00:21:25;2.45;;;1.23;;
32216;SDS011;18709;51.140;4.088;2022-12-29T00:24:20;1.00;;;0.90;;
32216;SDS011;18709;51.140;4.088;2022-12-29T00:26:47;3.22;;;1.45;;
32216;SDS011;18709;51.140;4.088;2022-12-29T00:29:40;1.42;;;0.80;;
32216;SDS011;18709;51.140;4.088;2022-12-29T00:32:24;4.20;;;1.00;;
32216;SDS011;18709;51.140;4.088;2022-12-29T00:35:09;3.17;;;1.10;;
32216;SDS011;18709;51.140;4.088;2022-12-29T00:37:38;1.05;;;0.75;;
32216;SDS011;18709;51.140;4.088;2022-12-29T00:40:25;2.25;;;0.98;;
32216;SDS011;18709;51.140;4.088;2022-12-29T00:43:10;2.22;;;0.70;;
32216;SDS011;18709;51.140;4.088;2022-12-29T00:45:54;1.98;;;0.75;;
32216;SDS011;18709;51.140;4.088;2022-12-29T00:48:20;3.53;;;0.85;;
32216;SDS011;18709;51.140;4.088;2022-12-29T00:51:05;2.35;;;0.75;;
32216;SDS011;18709;51.140;4.088;2022-12-29T00:53:32;7.50;;;1.00;;
32216;SDS011;18709;51.140;4.088;2022-12-29T00:55:57;4.03;;;0.85;;
32216;SDS011;18709;51.140;4.088;2022-12-29T00:58:23;3.55;;;0.70;;
32216;SDS011;18709;51.140;4.088;2022-12-29T01:00:51;3.65;;;0.90;;
32216;SDS011;18709;51.140;4.088;2022-12-29T01:03:17;2.63;;;0.60;;
32216;SDS011;18709;51.140;4.088;2022-12-29T01:05:42;2.50;;;0.80;;
32216;SDS011;18709;51.140;4.088;2022-12-29T01:08:08;3.08;;;0.77;;
32216;SDS011;18709;51.140;4.088;2022-12-29T01:10:34;1.23;;;0.50;;
32216;SDS011;18709;51.140;4.088;2022-12-29T01:12:59;3.00;;;0.95;;
32216;SDS011;18709;51.140;4.088;2022-12-29T01:15:25;2.33;;;0.90;;
32216;SDS011;18709;51.140;4.088;2022-12-29T01:17:50;3.40;;;0.75;;
32216;SDS011;18709;51.140;4.088;2022-12-29T01:20:16;5.57;;;1.42;;
32216;SDS011;18709;51.140;4.088;2022-12-29T01:22:42;6.63;;;0.90;;
32216;SDS011;18709;51.140;4.088;2022-12-29T01:25:08;2.92;;;1.00;;
32216;SDS011;18709;51.140;4.088;2022-12-29T01:27:34;5.88;;;0.93;;
32216;SDS011;18709;51.140;4.088;2022-12-29T01:30:00;6.22;;;1.30;;
32216;SDS011;18709;51.140;4.088;2022-12-29T01:32:25;6.82;;;1.25;;
32216;SDS011;18709;51.140;4.088;2022-12-29T01:34:51;6.32;;;1.20;;
32216;SDS011;18709;51.140;4.088;2022-12-29T01:37:16;6.82;;;0.95;;
32216;SDS011;18709;51.140;4.088;2022-12-29T01:39:42;4.68;;;1.10;;
32216;SDS011;18709;51.140;4.088;2022-12-29T01:42:12;5.22;;;0.90;;
32216;SDS011;18709;51.140;4.088;2022-12-29T01:47:29;3.05;;;0.70;;
32216;SDS011;18709;51.140;4.088;2022-12-29T01:50:03;10.88;;;1.02;;
32216;SDS011;18709;51.140;4.088;2022-12-29T01:52:35;6.18;;;1.30;;
32216;SDS011;18709;51.140;4.088;2022-12-29T01:55:03;5.75;;;1.27;;
32216;SDS011;18709;51.140;4.088;2022-12-29T01:57:32;5.50;;;1.02;;
32216;SDS011;18709;51.140;4.088;2022-12-29T02:00:03;4.60;;;0.80;;
32216;SDS011;18709;51.140;4.088;2022-12-29T02:02:32;7.90;;;0.90;;
32216;SDS011;18709;51.140;4.088;2022-12-29T02:04:58;6.00;;;1.23;;
32216;SDS011;18709;51.140;4.088;2022-12-29T02:07:27;3.78;;;0.65;;
32216;SDS011;18709;51.140;4.088;2022-12-29T02:09:54;3.53;;;1.25;;
32216;SDS011;18709;51.140;4.088;2022-12-29T02:12:21;4.32;;;0.85;;
32216;SDS011;18709;51.140;4.088;2022-12-29T02:14:49;4.05;;;0.95;;
32216;SDS011;18709;51.140;4.088;2022-12-29T02:17:26;4.83;;;0.90;;
32216;SDS011;18709;51.140;4.088;2022-12-29T02:41:44;6.63;;;1.20;;
32216;SDS011;18709;51.140;4.088;2022-12-29T02:44:42;3.38;;;0.80;;
32216;SDS011;18709;51.140;4.088;2022-12-29T02:47:13;5.47;;;1.10;;
32216;SDS011;18709;51.140;4.088;2022-12-29T02:50:02;3.75;;;0.77;;
32216;SDS011;18709;51.140;4.088;2022-12-29T02:52:34;4.20;;;1.10;;
32216;SDS011;18709;51.140;4.088;2022-12-29T02:55:04;6.22;;;1.15;;
32216;SDS011;18709;51.140;4.088;2022-12-29T02:57:31;4.40;;;0.77;;
32216;SDS011;18709;51.140;4.088;2022-12-29T03:00:05;6.05;;;0.95;;
32216;SDS011;18709;51.140;4.088;2022-12-29T03:05:38;5.95;;;0.80;;
32216;SDS011;18709;51.140;4.088;2022-12-29T03:10:59;6.95;;;0.90;;
32216;SDS011;18709;51.140;4.088;2022-12-29T03:16:32;3.05;;;0.75;;
32216;SDS011;18709;51.140;4.088;2022-12-29T03:19:16;7.88;;;1.00;;
32216;SDS011;18709;51.140;4.088;2022-12-29T03:22:12;5.50;;;1.00;;
32216;SDS011;18709;51.140;4.088;2022-12-29T03:24:59;6.13;;;0.90;;
32216;SDS011;18709;51.140;4.088;2022-12-29T03:27:54;3.50;;;0.90;;
32216;SDS011;18709;51.140;4.088;2022-12-29T03:30:23;5.38;;;0.90;;
32216;SDS011;18709;51.140;4.088;2022-12-29T03:32:52;4.97;;;0.80;;
32216;SDS011;18709;51.140;4.088;2022-12-29T03:35:22;5.60;;;0.85;;
32216;SDS011;18709;51.140;4.088;2022-12-29T03:40:23;9.65;;;1.55;;
32216;SDS011;18709;51.140;4.088;2022-12-29T03:42:50;12.05;;;1.38;;
32216;SDS011;18709;51.140;4.088;2022-12-29T03:45:16;8.68;;;1.77;;
32216;SDS011;18709;51.140;4.088;2022-12-29T03:47:42;10.90;;;1.60;;
32216;SDS011;18709;51.140;4.088;2022-12-29T03:50:07;7.13;;;1.70;;
32216;SDS011;18709;51.140;4.088;2022-12-29T03:52:33;6.80;;;1.33;;
32216;SDS011;18709;51.140;4.088;2022-12-29T03:54:59;9.88;;;1.20;;
32216;SDS011;18709;51.140;4.088;2022-12-29T03:57:25;6.20;;;1.00;;
32216;SDS011;18709;51.140;4.088;2022-12-29T03:59:50;9.27;;;1.25;;
32216;SDS011;18709;51.140;4.088;2022-12-29T04:02:16;8.45;;;1.42;;
32216;SDS011;18709;51.140;4.088;2022-12-29T04:04:41;5.93;;;1.00;;
32216;SDS011;18709;51.140;4.088;2022-12-29T04:07:07;9.63;;;1.45;;
32216;SDS011;18709;51.140;4.088;2022-12-29T04:09:33;7.68;;;1.23;;
32216;SDS011;18709;51.140;4.088;2022-12-29T04:11:59;8.30;;;1.85;;
32216;SDS011;18709;51.140;4.088;2022-12-29T04:14:24;8.80;;;1.50;;
32216;SDS011;18709;51.140;4.088;2022-12-29T04:16:50;10.18;;;1.73;;
32216;SDS011;18709;51.140;4.088;2022-12-29T04:19:15;10.15;;;1.27;;
32216;SDS011;18709;51.140;4.088;2022-12-29T04:21:41;7.93;;;1.55;;
32216;SDS011;18709;51.140;4.088;2022-12-29T04:24:07;7.07;;;2.40;;
32216;SDS011;18709;51.140;4.088;2022-12-29T04:26:33;10.38;;;1.25;;
32216;SDS011;18709;51.140;4.088;2022-12-29T04:28:58;6.25;;;1.33;;
32216;SDS011;18709;51.140;4.088;2022-12-29T04:31:24;9.65;;;1.13;;
32216;SDS011;18709;51.140;4.088;2022-12-29T04:33:49;8.32;;;1.35;;
32216;SDS011;18709;51.140;4.088;2022-12-29T04:36:15;6.22;;;1.02;;
32216;SDS011;18709;51.140;4.088;2022-12-29T04:38:41;9.15;;;1.50;;
32216;SDS011;18709;51.140;4.088;2022-12-29T04:41:06;12.50;;;1.20;;
32216;SDS011;18709;51.140;4.088;2022-12-29T04:43:32;8.48;;;1.63;;
32216;SDS011;18709;51.140;4.088;2022-12-29T04:45:58;5.22;;;1.27;;
32216;SDS011;18709;51.140;4.088;2022-12-29T04:48:23;8.20;;;1.63;;
32216;SDS011;18709;51.140;4.088;2022-12-29T04:50:49;9.85;;;2.22;;
32216;SDS011;18709;51.140;4.088;2022-12-29T04:53:15;12.30;;;1.60;;
32216;SDS011;18709;51.140;4.088;2022-12-29T04:55:41;13.93;;;1.80;;
32216;SDS011;18709;51.140;4.088;2022-12-29T04:58:07;5.32;;;1.38;;
32216;SDS011;18709;51.140;4.088;2022-12-29T05:00:33;8.02;;;1.80;;
32216;SDS011;18709;51.140;4.088;2022-12-29T05:02:58;10.45;;;1.30;;
32216;SDS011;18709;51.140;4.088;2022-12-29T05:05:24;16.45;;;2.67;;
32216;SDS011;18709;51.140;4.088;2022-12-29T05:07:50;6.20;;;1.00;;
32216;SDS011;18709;51.140;4.088;2022-12-29T05:10:16;4.80;;;0.95;;
32216;SDS011;18709;51.140;4.088;2022-12-29T05:12:42;9.52;;;1.10;;
32216;SDS011;18709;51.140;4.088;2022-12-29T05:15:08;5.63;;;1.05;;
32216;SDS011;18709;51.140;4.088;2022-12-29T05:17:34;9.88;;;1.30;;
32216;SDS011;18709;51.140;4.088;2022-12-29T05:20:00;6.53;;;1.15;;
32216;SDS011;18709;51.140;4.088;2022-12-29T05:22:25;4.38;;;0.75;;
32216;SDS011;18709;51.140;4.088;2022-12-29T05:24:51;8.55;;;1.00;;
32216;SDS011;18709;51.140;4.088;2022-12-29T05:27:17;3.67;;;1.05;;
32216;SDS011;18709;51.140;4.088;2022-12-29T05:29:42;7.32;;;1.10;;
32216;SDS011;18709;51.140;4.088;2022-12-29T05:32:08;9.13;;;0.80;;
32216;SDS011;18709;51.140;4.088;2022-12-29T05:34:34;8.50;;;1.20;;
32216;SDS011;18709;51.140;4.088;2022-12-29T05:36:59;9.10;;;0.95;;
32216;SDS011;18709;51.140;4.088;2022-12-29T05:39:26;8.48;;;1.95;;
32216;SDS011;18709;51.140;4.088;2022-12-29T05:41:52;7.70;;;1.20;;
32216;SDS011;18709;51.140;4.088;2022-12-29T05:44:17;5.85;;;1.13;;
32216;SDS011;18709;51.140;4.088;2022-12-29T05:46:43;6.70;;;1.02;;
32216;SDS011;18709;51.140;4.088;2022-12-29T05:49:08;9.20;;;1.00;;
32216;SDS011;18709;51.140;4.088;2022-12-29T05:51:34;11.77;;;1.17;;
32216;SDS011;18709;51.140;4.088;2022-12-29T05:54:00;7.32;;;1.38;;
32216;SDS011;18709;51.140;4.088;2022-12-29T05:56:25;6.10;;;0.88;;
32216;SDS011;18709;51.140;4.088;2022-12-29T05:58:51;8.80;;;1.17;;
32216;SDS011;18709;51.140;4.088;2022-12-29T06:01:16;10.20;;;1.95;;
32216;SDS011;18709;51.140;4.088;2022-12-29T06:03:42;8.05;;;1.50;;
32216;SDS011;18709;51.140;4.088;2022-12-29T06:06:08;8.57;;;1.52;;
32216;SDS011;18709;51.140;4.088;2022-12-29T06:08:33;7.25;;;1.42;;
32216;SDS011;18709;51.140;4.088;2022-12-29T06:10:59;9.48;;;1.23;;
32216;SDS011;18709;51.140;4.088;2022-12-29T06:13:25;11.93;;;1.77;;
32216;SDS011;18709;51.140;4.088;2022-12-29T06:15:51;8.52;;;1.08;;
32216;SDS011;18709;51.140;4.088;2022-12-29T06:18:16;5.45;;;1.38;;
32216;SDS011;18709;51.140;4.088;2022-12-29T06:20:42;9.00;;;1.45;;
32216;SDS011;18709;51.140;4.088;2022-12-29T06:23:08;6.93;;;1.30;;
32216;SDS011;18709;51.140;4.088;2022-12-29T06:25:33;11.93;;;1.70;;
32216;SDS011;18709;51.140;4.088;2022-12-29T06:28:00;8.93;;;1.60;;
32216;SDS011;18709;51.140;4.088;2022-12-29T06:30:27;6.93;;;1.17;;
32216;SDS011;18709;51.140;4.088;2022-12-29T06:32:52;5.95;;;1.60;;
32216;SDS011;18709;51.140;4.088;2022-12-29T06:35:19;13.48;;;1.92;;
32216;SDS011;18709;51.140;4.088;2022-12-29T06:37:46;14.68;;;2.00;;
32216;SDS011;18709;51.140;4.088;2022-12-29T06:40:12;10.52;;;1.90;;
32216;SDS011;18709;51.140;4.088;2022-12-29T06:42:37;11.40;;;1.80;;
32216;SDS011;18709;51.140;4.088;2022-12-29T06:45:03;5.85;;;1.33;;
32216;SDS011;18709;51.140;4.088;2022-12-29T06:47:29;15.38;;;2.17;;
32216;SDS011;18709;51.140;4.088;2022-12-29T06:49:54;14.18;;;1.85;;
32216;SDS011;18709;51.140;4.088;2022-12-29T06:52:20;5.15;;;1.50;;
32216;SDS011;18709;51.140;4.088;2022-12-29T06:54:46;6.88;;;1.67;;
32216;SDS011;18709;51.140;4.088;2022-12-29T06:57:11;11.90;;;2.38;;
32216;SDS011;18709;51.140;4.088;2022-12-29T06:59:37;10.35;;;2.83;;
32216;SDS011;18709;51.140;4.088;2022-12-29T07:02:03;10.02;;;1.75;;
32216;SDS011;18709;51.140;4.088;2022-12-29T07:04:29;19.23;;;2.65;;
32216;SDS011;18709;51.140;4.088;2022-12-29T07:06:54;14.90;;;2.13;;
32216;SDS011;18709;51.140;4.088;2022-12-29T07:09:20;10.25;;;1.95;;
32216;SDS011;18709;51.140;4.088;2022-12-29T07:11:46;12.27;;;1.83;;
32216;SDS011;18709;51.140;4.088;2022-12-29T07:14:11;15.60;;;1.90;;
32216;SDS011;18709;51.140;4.088;2022-12-29T07:16:37;13.32;;;2.00;;
32216;SDS011;18709;51.140;4.088;2022-12-29T07:19:03;11.23;;;2.55;;
32216;SDS011;18709;51.140;4.088;2022-12-29T07:21:29;6.72;;;2.10;;
32216;SDS011;18709;51.140;4.088;2022-12-29T07:23:54;14.85;;;2.50;;
32216;SDS011;18709;51.140;4.088;2022-12-29T07:26:20;13.23;;;2.40;;
32216;SDS011;18709;51.140;4.088;2022-12-29T07:28:46;20.52;;;2.17;;
32216;SDS011;18709;51.140;4.088;2022-12-29T07:31:15;14.25;;;2.03;;
32216;SDS011;18709;51.140;4.088;2022-12-29T07:33:43;10.43;;;1.92;;
32216;SDS011;18709;51.140;4.088;2022-12-29T07:36:09;13.13;;;2.08;;
32216;SDS011;18709;51.140;4.088;2022-12-29T07:38:36;12.85;;;2.47;;
32216;SDS011;18709;51.140;4.088;2022-12-29T07:41:01;11.85;;;2.22;;
32216;SDS011;18709;51.140;4.088;2022-12-29T07:43:27;11.88;;;1.92;;
32216;SDS011;18709;51.140;4.088;2022-12-29T07:45:53;15.32;;;1.83;;
32216;SDS011;18709;51.140;4.088;2022-12-29T07:48:19;11.93;;;2.33;;
32216;SDS011;18709;51.140;4.088;2022-12-29T07:50:45;12.60;;;1.98;;
32216;SDS011;18709;51.140;4.088;2022-12-29T07:53:10;14.30;;;2.15;;
32216;SDS011;18709;51.140;4.088;2022-12-29T07:55:36;10.10;;;1.83;;
32216;SDS011;18709;51.140;4.088;2022-12-29T07:58:02;12.88;;;2.00;;
32216;SDS011;18709;51.140;4.088;2022-12-29T08:00:27;12.40;;;1.80;;
32216;SDS011;18709;51.140;4.088;2022-12-29T08:02:53;13.20;;;2.10;;
32216;SDS011;18709;51.140;4.088;2022-12-29T08:05:19;12.70;;;2.08;;
32216;SDS011;18709;51.140;4.088;2022-12-29T08:07:45;13.48;;;2.10;;
32216;SDS011;18709;51.140;4.088;2022-12-29T08:10:12;17.48;;;2.00;;
32216;SDS011;18709;51.140;4.088;2022-12-29T08:12:38;21.55;;;2.42;;
32216;SDS011;18709;51.140;4.088;2022-12-29T08:15:05;11.73;;;2.63;;
32216;SDS011;18709;51.140;4.088;2022-12-29T08:17:31;15.05;;;1.98;;
32216;SDS011;18709;51.140;4.088;2022-12-29T08:19:57;17.23;;;2.20;;
32216;SDS011;18709;51.140;4.088;2022-12-29T08:22:23;10.98;;;2.00;;
32216;SDS011;18709;51.140;4.088;2022-12-29T08:24:49;17.73;;;2.30;;
32216;SDS011;18709;51.140;4.088;2022-12-29T08:27:14;22.20;;;2.38;;
32216;SDS011;18709;51.140;4.088;2022-12-29T08:29:40;15.43;;;2.83;;
32216;SDS011;18709;51.140;4.088;2022-12-29T08:32:06;13.68;;;2.00;;
32216;SDS011;18709;51.140;4.088;2022-12-29T08:34:32;16.27;;;2.45;;
32216;SDS011;18709;51.140;4.088;2022-12-29T08:36:58;13.93;;;2.05;;
32216;SDS011;18709;51.140;4.088;2022-12-29T08:39:23;16.52;;;2.35;;
32216;SDS011;18709;51.140;4.088;2022-12-29T08:41:49;16.48;;;2.95;;
32216;SDS011;18709;51.140;4.088;2022-12-29T08:44:15;14.30;;;2.15;;
32216;SDS011;18709;51.140;4.088;2022-12-29T08:46:40;11.60;;;2.00;;
32216;SDS011;18709;51.140;4.088;2022-12-29T08:49:06;17.20;;;2.60;;
32216;SDS011;18709;51.140;4.088;2022-12-29T08:51:32;15.45;;;2.55;;
32216;SDS011;18709;51.140;4.088;2022-12-29T08:53:58;19.90;;;2.40;;
32216;SDS011;18709;51.140;4.088;2022-12-29T08:56:24;14.68;;;2.28;;
32216;SDS011;18709;51.140;4.088;2022-12-29T08:58:51;13.55;;;2.22;;
32216;SDS011;18709;51.140;4.088;2022-12-29T09:01:17;15.30;;;2.75;;
32216;SDS011;18709;51.140;4.088;2022-12-29T09:03:42;19.73;;;2.78;;
32216;SDS011;18709;51.140;4.088;2022-12-29T09:06:08;23.95;;;2.85;;
32216;SDS011;18709;51.140;4.088;2022-12-29T09:08:35;19.08;;;2.85;;
32216;SDS011;18709;51.140;4.088;2022-12-29T09:11:12;12.50;;;2.20;;
32216;SDS011;18709;51.140;4.088;2022-12-29T09:13:38;11.80;;;2.42;;
32216;SDS011;18709;51.140;4.088;2022-12-29T09:16:04;18.63;;;2.50;;
32216;SDS011;18709;51.140;4.088;2022-12-29T09:18:29;11.98;;;2.60;;
32216;SDS011;18709;51.140;4.088;2022-12-29T09:20:57;14.82;;;2.67;;
32216;SDS011;18709;51.140;4.088;2022-12-29T09:23:23;17.02;;;3.30;;
32216;SDS011;18709;51.140;4.088;2022-12-29T09:25:49;20.67;;;3.20;;
32216;SDS011;18709;51.140;4.088;2022-12-29T09:28:15;19.48;;;3.42;;
32216;SDS011;18709;51.140;4.088;2022-12-29T09:30:41;16.15;;;2.92;;
32216;SDS011;18709;51.140;4.088;2022-12-29T09:33:07;17.58;;;2.88;;
32216;SDS011;18709;51.140;4.088;2022-12-29T09:35:32;22.67;;;2.63;;
32216;SDS011;18709;51.140;4.088;2022-12-29T09:37:58;19.17;;;2.72;;
32216;SDS011;18709;51.140;4.088;2022-12-29T09:40:28;14.48;;;4.72;;
32216;SDS011;18709;51.140;4.088;2022-12-29T09:43:02;24.90;;;4.88;;
32216;SDS011;18709;51.140;4.088;2022-12-29T09:45:54;18.27;;;4.28;;
32216;SDS011;18709;51.140;4.088;2022-12-29T09:48:31;19.73;;;3.00;;
32216;SDS011;18709;51.140;4.088;2022-12-29T09:51:01;19.77;;;3.85;;
32216;SDS011;18709;51.140;4.088;2022-12-29T09:53:36;18.38;;;2.63;;
32216;SDS011;18709;51.140;4.088;2022-12-29T09:56:07;18.23;;;3.38;;
32216;SDS011;18709;51.140;4.088;2022-12-29T09:58:43;15.73;;;3.20;;
32216;SDS011;18709;51.140;4.088;2022-12-29T10:01:23;18.27;;;3.72;;
32216;SDS011;18709;51.140;4.088;2022-12-29T10:04:02;22.35;;;4.70;;
32216;SDS011;18709;51.140;4.088;2022-12-29T10:09:22;17.83;;;3.22;;
32216;SDS011;18709;51.140;4.088;2022-12-29T10:25:22;26.23;;;3.70;;
32216;SDS011;18709;51.140;4.088;2022-12-29T10:27:50;17.48;;;2.88;;
32216;SDS011;18709;51.140;4.088;2022-12-29T10:30:21;23.02;;;3.00;;
32216;SDS011;18709;51.140;4.088;2022-12-29T10:32:50;20.70;;;3.60;;
32216;SDS011;18709;51.140;4.088;2022-12-29T10:35:23;16.25;;;2.65;;
32216;SDS011;18709;51.140;4.088;2022-12-29T10:40:40;16.08;;;2.63;;
32216;SDS011;18709;51.140;4.088;2022-12-29T10:43:56;14.95;;;2.85;;
32216;SDS011;18709;51.140;4.088;2022-12-29T10:46:11;18.65;;;3.30;;
32216;SDS011;18709;51.140;4.088;2022-12-29T10:48:39;27.00;;;4.82;;
32216;SDS011;18709;51.140;4.088;2022-12-29T10:51:05;17.02;;;3.80;;
32216;SDS011;18709;51.140;4.088;2022-12-29T10:53:37;20.00;;;3.35;;
32216;SDS011;18709;51.140;4.088;2022-12-29T10:56:21;20.08;;;4.13;;
32216;SDS011;18709;51.140;4.088;2022-12-29T10:59:00;15.98;;;3.38;;
32216;SDS011;18709;51.140;4.088;2022-12-29T11:01:37;29.50;;;5.07;;
32216;SDS011;18709;51.140;4.088;2022-12-29T11:06:52;20.25;;;2.85;;
32216;SDS011;18709;51.140;4.088;2022-12-29T11:09:23;15.57;;;2.30;;
32216;SDS011;18709;51.140;4.088;2022-12-29T11:11:52;20.23;;;2.63;;
32216;SDS011;18709;51.140;4.088;2022-12-29T11:14:19;12.00;;;2.33;;
32216;SDS011;18709;51.140;4.088;2022-12-29T11:16:58;9.25;;;1.98;;
32216;SDS011;18709;51.140;4.088;2022-12-29T11:19:26;14.13;;;2.10;;
32216;SDS011;18709;51.140;4.088;2022-12-29T11:21:56;9.65;;;2.42;;
32216;SDS011;18709;51.140;4.088;2022-12-29T11:24:43;17.92;;;2.28;;
32216;SDS011;18709;51.140;4.088;2022-12-29T11:27:32;10.60;;;1.52;;
32216;SDS011;18709;51.140;4.088;2022-12-29T11:29:57;14.13;;;1.90;;
32216;SDS011;18709;51.140;4.088;2022-12-29T11:32:25;14.00;;;2.17;;
32216;SDS011;18709;51.140;4.088;2022-12-29T11:34:52;17.60;;;3.40;;
32216;SDS011;18709;51.140;4.088;2022-12-29T11:37:19;10.77;;;1.90;;
32216;SDS011;18709;51.140;4.088;2022-12-29T11:39:58;14.65;;;2.53;;
32216;SDS011;18709;51.140;4.088;2022-12-29T11:42:35;20.95;;;2.13;;
32216;SDS011;18709;51.140;4.088;2022-12-29T11:45:19;13.48;;;1.80;;
32216;SDS011;18709;51.140;4.088;2022-12-29T11:47:48;13.13;;;2.03;;
32216;SDS011;18709;51.140;4.088;2022-12-29T11:50:22;16.58;;;2.10;;
32216;SDS011;18709;51.140;4.088;2022-12-29T11:52:56;12.82;;;2.53;;
32216;SDS011;18709;51.140;4.088;2022-12-29T11:55:25;11.90;;;2.10;;
32216;SDS011;18709;51.140;4.088;2022-12-29T11:57:52;10.75;;;2.03;;
32216;SDS011;18709;51.140;4.088;2022-12-29T12:00:21;12.35;;;2.03;;
32216;SDS011;18709;51.140;4.088;2022-12-29T12:08:02;14.63;;;2.15;;
32216;SDS011;18709;51.140;4.088;2022-12-29T12:10:46;22.23;;;2.42;;
32216;SDS011;18709;51.140;4.088;2022-12-29T12:15:51;19.50;;;2.88;;
32216;SDS011;18709;51.140;4.088;2022-12-29T12:18:30;11.40;;;2.53;;
32216;SDS011;18709;51.140;4.088;2022-12-29T12:21:40;12.98;;;2.00;;
32216;SDS011;18709;51.140;4.088;2022-12-29T12:29:39;15.18;;;3.17;;
32216;SDS011;18709;51.140;4.088;2022-12-29T12:38:54;12.93;;;2.85;;
32216;SDS011;18709;51.140;4.088;2022-12-29T12:44:38;14.32;;;2.10;;
32216;SDS011;18709;51.140;4.088;2022-12-29T12:47:55;12.60;;;2.58;;
32216;SDS011;18709;51.140;4.088;2022-12-29T12:53:35;15.90;;;2.25;;
32216;SDS011;18709;51.140;4.088;2022-12-29T13:07:12;9.38;;;1.35;;
32216;SDS011;18709;51.140;4.088;2022-12-29T13:10:01;7.65;;;1.30;;
32216;SDS011;18709;51.140;4.088;2022-12-29T13:12:47;7.95;;;1.52;;
32216;SDS011;18709;51.140;4.088;2022-12-29T13:23:26;6.72;;;1.15;;
32216;SDS011;18709;51.140;4.088;2022-12-29T13:28:53;11.48;;;1.55;;
32216;SDS011;18709;51.140;4.088;2022-12-29T13:33:59;6.47;;;1.55;;
32216;SDS011;18709;51.140;4.088;2022-12-29T13:39:03;7.35;;;1.70;;
32216;SDS011;18709;51.140;4.088;2022-12-29T13:41:51;12.73;;;1.90;;
32216;SDS011;18709;51.140;4.088;2022-12-29T13:45:01;8.52;;;1.50;;
32216;SDS011;18709;51.140;4.088;2022-12-29T13:49:48;11.10;;;1.75;;
32216;SDS011;18709;51.140;4.088;2022-12-29T13:57:53;6.28;;;1.45;;
32216;SDS011;18709;51.140;4.088;2022-12-29T14:00:22;3.50;;;0.68;;
32216;SDS011;18709;51.140;4.088;2022-12-29T14:03:02;5.55;;;0.80;;
32216;SDS011;18709;51.140;4.088;2022-12-29T14:08:53;4.57;;;1.17;;
32216;SDS011;18709;51.140;4.088;2022-12-29T14:11:28;11.73;;;1.48;;
32216;SDS011;18709;51.140;4.088;2022-12-29T14:13:57;4.03;;;0.77;;
32216;SDS011;18709;51.140;4.088;2022-12-29T14:16:25;7.72;;;1.35;;
32216;SDS011;18709;51.140;4.088;2022-12-29T14:18:51;5.18;;;0.90;;
32216;SDS011;18709;51.140;4.088;2022-12-29T14:21:20;4.57;;;0.93;;
32216;SDS011;18709;51.140;4.088;2022-12-29T14:23:49;3.72;;;1.17;;
32216;SDS011;18709;51.140;4.088;2022-12-29T14:28:46;9.13;;;1.50;;
32216;SDS011;18709;51.140;4.088;2022-12-29T14:34:14;4.43;;;1.40;;
32216;SDS011;18709;51.140;4.088;2022-12-29T14:44:59;7.45;;;1.63;;
32216;SDS011;18709;51.140;4.088;2022-12-29T14:47:37;5.93;;;1.40;;
32216;SDS011;18709;51.140;4.088;2022-12-29T14:58:35;8.60;;;1.27;;
32216;SDS011;18709;51.140;4.088;2022-12-29T15:01:44;6.20;;;1.70;;
32216;SDS011;18709;51.140;4.088;2022-12-29T15:04:40;9.10;;;1.60;;
32216;SDS011;18709;51.140;4.088;2022-12-29T15:07:00;8.57;;;1.33;;
32216;SDS011;18709;51.140;4.088;2022-12-29T15:09:33;7.20;;;1.55;;
32216;SDS011;18709;51.140;4.088;2022-12-29T15:14:50;6.82;;;1.38;;
32216;SDS011;18709;51.140;4.088;2022-12-29T15:17:30;13.48;;;2.30;;
32216;SDS011;18709;51.140;4.088;2022-12-29T15:20:13;8.85;;;1.70;;
32216;SDS011;18709;51.140;4.088;2022-12-29T15:23:00;11.57;;;2.15;;
32216;SDS011;18709;51.140;4.088;2022-12-29T15:25:28;13.18;;;2.55;;
32216;SDS011;18709;51.140;4.088;2022-12-29T15:28:05;10.20;;;1.80;;
32216;SDS011;18709;51.140;4.088;2022-12-29T15:30:32;11.15;;;2.10;;
32216;SDS011;18709;51.140;4.088;2022-12-29T15:32:58;14.20;;;1.80;;
32216;SDS011;18709;51.140;4.088;2022-12-29T15:37:57;19.05;;;2.80;;
32216;SDS011;18709;51.140;4.088;2022-12-29T15:40:28;18.08;;;2.15;;
32216;SDS011;18709;51.140;4.088;2022-12-29T15:45:28;15.68;;;2.72;;
32216;SDS011;18709;51.140;4.088;2022-12-29T15:47:57;15.75;;;2.60;;
32216;SDS011;18709;51.140;4.088;2022-12-29T15:50:31;12.30;;;2.10;;
32216;SDS011;18709;51.140;4.088;2022-12-29T15:52:59;14.30;;;1.70;;
32216;SDS011;18709;51.140;4.088;2022-12-29T15:55:32;16.33;;;2.75;;
32216;SDS011;18709;51.140;4.088;2022-12-29T15:58:04;9.88;;;2.55;;
32216;SDS011;18709;51.140;4.088;2022-12-29T16:00:45;11.00;;;1.67;;
32216;SDS011;18709;51.140;4.088;2022-12-29T16:03:13;9.75;;;1.80;;
32216;SDS011;18709;51.140;4.088;2022-12-29T16:05:40;17.83;;;2.78;;
32216;SDS011;18709;51.140;4.088;2022-12-29T16:08:24;9.60;;;1.70;;
32216;SDS011;18709;51.140;4.088;2022-12-29T16:10:58;9.48;;;1.80;;
32216;SDS011;18709;51.140;4.088;2022-12-29T16:13:37;13.77;;;2.72;;
32216;SDS011;18709;51.140;4.088;2022-12-29T16:16:09;15.82;;;2.05;;
32216;SDS011;18709;51.140;4.088;2022-12-29T16:18:45;11.35;;;1.75;;
32216;SDS011;18709;51.140;4.088;2022-12-29T16:21:20;11.48;;;2.28;;
32216;SDS011;18709;51.140;4.088;2022-12-29T16:26:20;11.90;;;2.53;;
32216;SDS011;18709;51.140;4.088;2022-12-29T16:28:48;19.27;;;2.63;;
32216;SDS011;18709;51.140;4.088;2022-12-29T16:34:23;15.07;;;2.08;;
32216;SDS011;18709;51.140;4.088;2022-12-29T16:39:41;20.52;;;3.83;;
32216;SDS011;18709;51.140;4.088;2022-12-29T16:50:29;14.30;;;3.13;;
32216;SDS011;18709;51.140;4.088;2022-12-29T16:52:56;16.30;;;2.45;;
32216;SDS011;18709;51.140;4.088;2022-12-29T16:55:22;22.77;;;3.33;;
32216;SDS011;18709;51.140;4.088;2022-12-29T16:57:48;15.90;;;2.47;;
32216;SDS011;18709;51.140;4.088;2022-12-29T17:00:28;19.07;;;2.67;;
32216;SDS011;18709;51.140;4.088;2022-12-29T17:02:59;10.88;;;2.55;;
32216;SDS011;18709;51.140;4.088;2022-12-29T17:05:26;16.08;;;2.83;;
32216;SDS011;18709;51.140;4.088;2022-12-29T17:07:52;16.85;;;3.00;;
32216;SDS011;18709;51.140;4.088;2022-12-29T17:10:17;14.98;;;3.53;;
32216;SDS011;18709;51.140;4.088;2022-12-29T17:12:44;18.33;;;3.38;;
32216;SDS011;18709;51.140;4.088;2022-12-29T17:15:30;25.15;;;3.45;;
32216;SDS011;18709;51.140;4.088;2022-12-29T17:17:59;26.35;;;3.25;;
32216;SDS011;18709;51.140;4.088;2022-12-29T17:20:26;19.40;;;2.70;;
32216;SDS011;18709;51.140;4.088;2022-12-29T17:22:53;19.48;;;2.85;;
32216;SDS011;18709;51.140;4.088;2022-12-29T17:25:22;24.58;;;3.85;;
32216;SDS011;18709;51.140;4.088;2022-12-29T17:27:57;18.77;;;3.30;;
32216;SDS011;18709;51.140;4.088;2022-12-29T17:30:25;14.05;;;2.88;;
32216;SDS011;18709;51.140;4.088;2022-12-29T17:32:52;23.88;;;3.83;;
32216;SDS011;18709;51.140;4.088;2022-12-29T17:35:22;15.07;;;3.10;;
32216;SDS011;18709;51.140;4.088;2022-12-29T17:37:48;15.48;;;3.47;;
32216;SDS011;18709;51.140;4.088;2022-12-29T17:40:18;21.10;;;3.25;;
32216;SDS011;18709;51.140;4.088;2022-12-29T17:42:49;21.50;;;3.70;;
32216;SDS011;18709;51.140;4.088;2022-12-29T17:45:27;14.18;;;3.03;;
32216;SDS011;18709;51.140;4.088;2022-12-29T17:47:54;29.30;;;3.33;;